Time;durP1;ratioP1;P1;durP2;ratioP2;P2;SDS_P1;SDS_P2;PMS_P1;PMS_P2;Temp;Humidity;BMP_temperature;BMP_pressure;BME280_temperature;BME280_humidity;BME280_pressure;Samples;Min_cycle;Max_cycle;Signal;HPM_P1;HPM_P2
2022/06/03 00:01:58;;;;;;;4.63;3.60;;;14.90;99.90;;;;;;5056566;28;20174;-30
2022/06/03 00:04:27;;;;;;;4.13;3.83;;;14.90;99.90;;;;;;5052287;28;20310;-29
2022/06/03 00:07:13;;;;;;;3.77;3.47;;;15.10;99.90;;;;;;5070859;28;20173;-29
2022/06/03 00:10:17;;;;;;;4.43;3.87;;;15.20;99.90;;;;;;5052677;28;20165;-29
2022/06/03 00:13:18;;;;;;;4.73;3.73;;;15.10;99.90;;;;;;4937015;28;20193;-29
2022/06/03 00:16:03;;;;;;;5.57;4.30;;;15.00;99.90;;;;;;5032475;28;20196;-29
2022/06/03 00:18:49;;;;;;;4.43;4.03;;;14.90;99.90;;;;;;5015865;28;20196;-29
2022/06/03 00:21:54;;;;;;;4.50;4.07;;;15.00;99.90;;;;;;5051297;28;20177;-29
2022/06/03 00:24:47;;;;;;;4.10;3.70;;;15.10;99.90;;;;;;5030338;28;20188;-30
2022/06/03 00:27:23;;;;;;;4.00;3.60;;;15.00;99.90;;;;;;5016156;28;20634;-31
2022/06/03 00:30:17;;;;;;;3.87;3.57;;;15.00;99.90;;;;;;5047248;28;20254;-29
2022/06/03 00:32:59;;;;;;;5.10;4.00;;;15.00;99.90;;;;;;5035763;28;20182;-30
2022/06/03 00:35:28;;;;;;;5.13;3.90;;;14.90;99.90;;;;;;5035390;28;20212;-29
2022/06/03 00:38:35;;;;;;;3.87;3.50;;;14.90;99.90;;;;;;5024662;28;20213;-29
2022/06/03 00:41:07;;;;;;;4.40;4.00;;;14.80;99.90;;;;;;5030647;28;20249;-29
2022/06/03 00:44:05;;;;;;;4.50;4.20;;;14.70;99.90;;;;;;5012489;28;20193;-30
2022/06/03 00:46:40;;;;;;;3.97;3.60;;;14.70;99.90;;;;;;5004720;28;20185;-30
2022/06/03 00:49:47;;;;;;;5.80;3.77;;;14.70;99.90;;;;;;5035641;28;20238;-30
2022/06/03 00:52:28;;;;;;;5.17;4.67;;;14.60;99.90;;;;;;5052152;28;20235;-31
2022/06/03 00:55:15;;;;;;;6.97;3.97;;;14.70;99.90;;;;;;5047149;28;20228;-30
2022/06/03 00:58:23;;;;;;;4.60;4.10;;;14.70;99.90;;;;;;5034106;28;20273;-31
2022/06/03 01:01:00;;;;;;;7.33;4.23;;;14.60;99.90;;;;;;5016243;28;20236;-30
2022/06/03 01:03:52;;;;;;;6.07;4.33;;;14.60;99.90;;;;;;5016248;28;20205;-30
2022/06/03 01:07:06;;;;;;;5.00;4.27;;;14.50;99.90;;;;;;5036816;28;20226;-30
2022/06/03 01:10:12;;;;;;;4.70;4.30;;;14.60;99.90;;;;;;4968478;28;20203;-30
2022/06/03 01:12:57;;;;;;;5.63;4.73;;;14.50;99.90;;;;;;5037776;28;20230;-31
2022/06/03 01:15:30;;;;;;;4.60;4.20;;;14.50;99.90;;;;;;5035160;28;20215;-30
2022/06/03 01:18:20;;;;;;;5.07;4.57;;;14.50;99.90;;;;;;5035903;28;20204;-30
2022/06/03 01:21:01;;;;;;;6.07;4.17;;;14.60;99.90;;;;;;5035714;28;20686;-29
2022/06/03 01:23:48;;;;;;;5.20;4.70;;;14.50;99.90;;;;;;5035870;28;20253;-30
2022/06/03 01:26:53;;;;;;;5.20;4.73;;;14.60;99.90;;;;;;5035604;28;20188;-31
2022/06/03 01:29:48;;;;;;;4.60;4.20;;;14.60;99.90;;;;;;5018875;28;20568;-29
2022/06/03 01:32:31;;;;;;;4.80;4.40;;;14.40;99.90;;;;;;5016281;28;20184;-30
2022/06/03 01:35:15;;;;;;;4.23;3.87;;;14.40;99.90;;;;;;5054910;28;20209;-29
2022/06/03 01:37:58;;;;;;;5.00;4.57;;;14.50;99.90;;;;;;5038406;28;20229;-31
2022/06/03 01:40:29;;;;;;;5.13;4.53;;;14.50;99.90;;;;;;5052626;28;20180;-30
2022/06/03 01:43:08;;;;;;;6.63;5.03;;;14.40;99.90;;;;;;5018860;28;20182;-30
2022/06/03 01:45:48;;;;;;;5.43;4.63;;;14.30;99.90;;;;;;5018681;28;20326;-29
2022/06/03 01:48:26;;;;;;;5.33;4.70;;;14.40;99.90;;;;;;5035064;28;20289;-30
2022/06/03 01:51:46;;;;;;;6.00;5.00;;;14.40;99.90;;;;;;5032699;28;20181;-30
2022/06/03 01:54:33;;;;;;;5.20;4.70;;;14.30;99.90;;;;;;4954743;28;20215;-29
2022/06/03 01:57:13;;;;;;;6.27;4.90;;;14.30;99.90;;;;;;5011878;28;20201;-30
2022/06/03 02:00:00;;;;;;;5.37;4.87;;;14.20;99.90;;;;;;5023406;28;20185;-29
2022/06/03 02:02:51;;;;;;;5.17;4.67;;;14.20;99.90;;;;;;5038401;28;20192;-29
2022/06/03 02:06:02;;;;;;;5.60;4.93;;;14.20;99.90;;;;;;5054126;28;20186;-29
2022/06/03 02:08:51;;;;;;;4.93;4.50;;;14.10;99.90;;;;;;5043749;28;20202;-30
2022/06/03 02:11:46;;;;;;;6.07;4.80;;;14.10;99.90;;;;;;5038026;28;20193;-29
2022/06/03 02:14:49;;;;;;;6.07;5.13;;;14.00;99.90;;;;;;5037886;28;20209;-30
2022/06/03 02:17:37;;;;;;;5.40;4.90;;;14.00;99.90;;;;;;5045145;28;20626;-29
2022/06/03 02:20:40;;;;;;;5.23;4.73;;;14.00;99.90;;;;;;5034670;28;20228;-30
2022/06/03 02:23:30;;;;;;;5.20;4.70;;;14.00;99.90;;;;;;5052556;28;20200;-29
2022/06/03 02:26:17;;;;;;;5.03;4.47;;;13.90;99.90;;;;;;5040244;28;20185;-30
2022/06/03 02:32:15;;;;;;;5.30;4.80;;;13.90;99.90;;;;;;5071815;28;20169;-28
2022/06/03 02:34:55;;;;;;;7.23;4.67;;;13.90;99.90;;;;;;5067512;28;20196;-29
2022/06/03 02:37:53;;;;;;;5.77;4.47;;;13.90;99.90;;;;;;5034285;28;20172;-30
2022/06/03 02:40:43;;;;;;;5.37;4.80;;;13.90;99.90;;;;;;5033096;28;20192;-29
2022/06/03 02:43:31;;;;;;;6.83;5.17;;;13.90;99.90;;;;;;5034235;28;20263;-30
2022/06/03 02:46:44;;;;;;;4.90;4.50;;;13.90;99.90;;;;;;5032111;28;20182;-29
2022/06/03 02:49:21;;;;;;;5.43;4.73;;;13.90;99.90;;;;;;4935374;29;20304;-28
2022/06/03 02:52:11;;;;;;;5.13;4.50;;;13.90;99.90;;;;;;4951501;29;20183;-29
2022/06/03 02:54:46;;;;;;;5.00;4.53;;;13.90;99.90;;;;;;5016623;28;20323;-30
2022/06/03 02:57:40;;;;;;;8.77;4.73;;;13.90;99.90;;;;;;5033827;28;20239;-29
2022/06/03 03:00:19;;;;;;;4.87;4.47;;;13.90;99.90;;;;;;5033883;28;20184;-29
2022/06/03 03:03:04;;;;;;;5.60;5.10;;;14.00;99.90;;;;;;5017305;28;20807;-28
2022/06/03 03:05:41;;;;;;;5.40;5.00;;;14.00;99.90;;;;;;5017502;28;20180;-29
2022/06/03 03:08:44;;;;;;;5.53;5.03;;;14.00;99.90;;;;;;5017050;28;20213;-29
2022/06/03 03:11:35;;;;;;;6.10;4.77;;;14.00;99.90;;;;;;5051172;28;20638;-29
2022/06/03 03:14:27;;;;;;;4.67;4.27;;;14.00;99.90;;;;;;5033013;28;20215;-30
2022/06/03 03:17:04;;;;;;;4.53;4.17;;;13.90;99.90;;;;;;5008750;28;20188;-30
2022/06/03 03:19:58;;;;;;;4.57;4.17;;;13.90;99.90;;;;;;5016484;28;20193;-30
2022/06/03 03:22:46;;;;;;;5.03;4.30;;;13.90;99.90;;;;;;5016849;28;20184;-29
2022/06/03 03:25:27;;;;;;;6.40;4.57;;;13.90;99.90;;;;;;5033390;28;20268;-30
2022/06/03 03:28:02;;;;;;;5.17;4.73;;;13.90;99.90;;;;;;5033418;28;20202;-30
2022/06/03 03:31:02;;;;;;;5.03;4.10;;;13.80;99.90;;;;;;5016914;28;20233;-29
2022/06/03 03:33:31;;;;;;;4.67;4.07;;;13.80;99.90;;;;;;5033300;28;20189;-29
2022/06/03 03:36:15;;;;;;;4.73;4.33;;;13.70;99.90;;;;;;5032737;28;20187;-29
2022/06/03 03:38:50;;;;;;;5.23;4.73;;;13.70;99.90;;;;;;5032845;28;20209;-29
2022/06/03 03:41:48;;;;;;;4.70;4.20;;;13.60;99.90;;;;;;5032886;28;20266;-29
2022/06/03 03:44:58;;;;;;;7.43;4.87;;;13.70;99.90;;;;;;4973509;28;20188;-29
2022/06/03 03:47:41;;;;;;;5.40;4.90;;;13.70;99.90;;;;;;5016754;28;20264;-29
2022/06/03 03:50:14;;;;;;;5.63;4.80;;;13.60;99.90;;;;;;5033102;28;20185;-29
2022/06/03 03:52:43;;;;;;;6.73;4.97;;;13.70;99.90;;;;;;5050952;28;20256;-30
2022/06/03 03:55:38;;;;;;;5.53;4.60;;;13.70;99.90;;;;;;5032620;28;20268;-28
2022/06/03 03:58:23;;;;;;;6.03;4.53;;;13.70;99.90;;;;;;5032920;28;20255;-29
2022/06/03 04:01:23;;;;;;;5.30;4.80;;;13.80;99.90;;;;;;5016365;28;20638;-29
2022/06/03 04:04:07;;;;;;;5.50;5.00;;;13.80;99.90;;;;;;5032636;28;20327;-29
2022/06/03 04:06:32;;;;;;;5.67;5.17;;;13.90;99.90;;;;;;5016260;28;20230;-30
2022/06/03 04:09:18;;;;;;;6.10;5.00;;;13.90;99.90;;;;;;5015984;28;20251;-29
2022/06/03 04:12:11;;;;;;;7.90;5.57;;;13.90;99.90;;;;;;5033521;28;20268;-30
2022/06/03 04:15:30;;;;;;;5.10;4.70;;;13.90;99.90;;;;;;5036191;28;20218;-29
2022/06/03 04:18:29;;;;;;;6.60;4.87;;;13.90;99.90;;;;;;4955048;28;20211;-30
2022/06/03 04:21:04;;;;;;;6.77;5.27;;;13.70;99.90;;;;;;5035911;28;20184;-30
2022/06/03 04:23:54;;;;;;;5.50;5.00;;;13.70;99.90;;;;;;5052748;28;20189;-30
2022/06/03 04:26:29;;;;;;;4.97;4.50;;;13.60;99.90;;;;;;5017762;28;20668;-31
2022/06/03 04:29:35;;;;;;;6.00;5.03;;;13.70;99.90;;;;;;5016160;28;20208;-30
2022/06/03 04:32:04;;;;;;;7.50;5.13;;;13.70;99.90;;;;;;5052333;28;20210;-30
2022/06/03 04:34:54;;;;;;;7.83;5.50;;;13.70;99.90;;;;;;5051224;28;20737;-31
2022/06/03 04:37:57;;;;;;;7.23;4.80;;;13.70;99.90;;;;;;5035109;28;20268;-32
2022/06/03 04:40:41;;;;;;;5.07;4.57;;;13.60;99.90;;;;;;5019904;28;20219;-29
2022/06/03 04:43:26;;;;;;;6.03;5.30;;;13.70;99.90;;;;;;5051644;28;20177;-31
2022/06/03 04:46:40;;;;;;;5.63;5.10;;;13.70;99.90;;;;;;5034720;28;20181;-29
2022/06/03 04:49:25;;;;;;;8.67;5.30;;;13.80;99.90;;;;;;5031904;28;20217;-29
2022/06/03 04:52:21;;;;;;;6.07;5.47;;;13.90;99.90;;;;;;5031512;28;20223;-30
2022/06/03 04:55:25;;;;;;;5.50;5.00;;;13.90;99.90;;;;;;5028961;28;20228;-30
2022/06/03 04:58:25;;;;;;;6.00;5.40;;;13.90;99.90;;;;;;5034559;28;20207;-30
2022/06/03 05:01:09;;;;;;;5.67;5.00;;;14.00;99.90;;;;;;5034050;28;20199;-29
2022/06/03 05:04:03;;;;;;;6.13;5.53;;;14.10;99.90;;;;;;5017697;28;20185;-29
2022/06/03 05:07:01;;;;;;;6.80;5.27;;;14.20;99.90;;;;;;5031320;28;20216;-29
2022/06/03 05:09:29;;;;;;;6.57;5.87;;;14.30;99.90;;;;;;4965466;28;20208;-30
2022/06/03 05:11:58;;;;;;;6.67;5.97;;;14.40;99.90;;;;;;5017798;28;20190;-30
2022/06/03 05:14:59;;;;;;;7.57;6.37;;;14.40;99.90;;;;;;5034816;28;20213;-29
2022/06/03 05:18:22;;;;;;;6.23;5.63;;;14.50;99.90;;;;;;5022998;28;20319;-29
2022/06/03 05:21:18;;;;;;;5.87;5.37;;;14.60;99.90;;;;;;4921053;29;20188;-28
2022/06/03 05:24:07;;;;;;;6.43;5.80;;;14.60;99.90;;;;;;4937051;29;20195;-31
2022/06/03 05:26:39;;;;;;;6.40;5.80;;;14.70;99.90;;;;;;4976449;28;20300;-29
2022/06/03 05:29:17;;;;;;;6.87;5.73;;;14.80;99.90;;;;;;5032051;28;20202;-29
2022/06/03 05:32:01;;;;;;;6.63;5.97;;;14.90;99.90;;;;;;5015943;28;20183;-30
2022/06/03 05:35:12;;;;;;;6.40;5.90;;;15.00;99.90;;;;;;5015464;28;20220;-29
2022/06/03 05:37:56;;;;;;;6.80;6.10;;;15.20;99.90;;;;;;4978955;28;20272;-31
2022/06/03 05:40:22;;;;;;;7.13;6.53;;;15.20;99.90;;;;;;5032128;28;20175;-31
2022/06/03 05:43:04;;;;;;;7.03;6.20;;;15.40;99.90;;;;;;5033416;28;20233;-31
2022/06/03 05:46:12;;;;;;;7.87;7.03;;;15.60;99.90;;;;;;5031584;28;20190;-30
2022/06/03 05:48:50;;;;;;;7.07;6.20;;;15.70;99.90;;;;;;5032094;28;20195;-30
2022/06/03 05:51:56;;;;;;;6.80;6.10;;;15.90;99.90;;;;;;5015256;28;20186;-30
2022/06/03 05:54:39;;;;;;;7.43;6.57;;;16.10;99.90;;;;;;5033250;28;20225;-31
2022/06/03 05:57:05;;;;;;;6.77;6.10;;;16.30;99.90;;;;;;5035005;28;20178;-30
2022/06/03 05:59:56;;;;;;;7.23;6.40;;;16.40;99.90;;;;;;5035045;28;20215;-30
2022/06/03 06:02:40;;;;;;;6.97;6.20;;;16.60;99.90;;;;;;5034731;28;20178;-30
2022/06/03 06:05:33;;;;;;;5.90;5.40;;;16.70;99.90;;;;;;5034379;28;20241;-30
2022/06/03 06:08:17;;;;;;;6.07;5.33;;;16.90;99.90;;;;;;5033883;28;20240;-30
2022/06/03 06:11:07;;;;;;;5.57;5.17;;;17.10;99.90;;;;;;5048567;28;20174;-30
2022/06/03 06:14:07;;;;;;;5.97;5.37;;;17.40;99.90;;;;;;5033565;28;20220;-31
2022/06/03 06:16:40;;;;;;;5.70;5.20;;;17.60;99.90;;;;;;5018292;28;20249;-31
2022/06/03 06:19:18;;;;;;;6.07;5.43;;;17.80;99.90;;;;;;5034589;28;20745;-31
2022/06/03 06:21:59;;;;;;;5.68;5.18;;;18.00;99.90;;;;;;5017978;28;20180;-32
2022/06/03 06:24:51;;;;;;;5.32;4.90;;;18.30;99.90;;;;;;5034347;28;20176;-31
2022/06/03 06:27:28;;;;;;;7.47;5.15;;;18.40;99.90;;;;;;5017772;28;20239;-31
2022/06/03 06:30:12;;;;;;;5.95;5.13;;;18.60;99.90;;;;;;5035666;28;20192;-30
2022/06/03 06:32:59;;;;;;;6.10;5.35;;;18.80;99.90;;;;;;5019371;28;20185;-31
2022/06/03 06:35:44;;;;;;;5.65;5.10;;;19.00;99.90;;;;;;5034118;28;20201;-31
2022/06/03 06:38:23;;;;;;;6.40;5.90;;;19.10;99.90;;;;;;5017831;28;20209;-31
2022/06/03 06:41:17;;;;;;;6.10;5.60;;;19.10;99.90;;;;;;5035232;28;20623;-31
2022/06/03 06:43:49;;;;;;;5.53;5.03;;;19.20;99.90;;;;;;5036133;28;20172;-31
2022/06/03 06:46:25;;;;;;;5.03;4.50;;;19.30;99.90;;;;;;5034729;28;20189;-31
2022/06/03 06:48:54;;;;;;;4.93;4.53;;;19.60;99.90;;;;;;5034377;28;20262;-31
2022/06/03 06:51:26;;;;;;;7.60;5.93;;;19.80;99.90;;;;;;5017522;28;20635;-31
2022/06/03 06:54:05;;;;;;;7.10;5.82;;;19.80;99.90;;;;;;5051087;28;20198;-31
2022/06/03 06:56:38;;;;;;;5.10;4.70;;;19.90;99.90;;;;;;5033794;28;20182;-31
2022/06/03 06:59:12;;;;;;;6.53;5.72;;;20.10;99.90;;;;;;5033855;28;20202;-31
2022/06/03 07:01:47;;;;;;;7.85;6.00;;;20.30;99.90;;;;;;5033860;28;20276;-31
2022/06/03 07:04:27;;;;;;;5.03;4.60;;;20.30;99.90;;;;;;5017009;28;20188;-32
2022/06/03 07:07:16;;;;;;;5.60;5.10;;;20.50;99.90;;;;;;5016995;28;20182;-31
2022/06/03 07:09:46;;;;;;;6.20;5.70;;;20.70;99.90;;;;;;5017360;28;20228;-31
2022/06/03 07:12:19;;;;;;;5.45;4.93;;;20.60;99.90;;;;;;5033815;28;20177;-31
2022/06/03 07:14:44;;;;;;;5.32;4.80;;;20.70;99.90;;;;;;5033275;28;20273;-31
2022/06/03 07:20:22;;;;;;;7.22;4.93;;;21.00;99.90;;;;;;5033364;28;20170;-31
2022/06/03 07:22:56;;;;;;;6.18;5.57;;;21.10;99.90;;;;;;5051350;28;20634;-31
2022/06/03 07:25:34;;;;;;;6.32;4.78;;;21.10;99.90;;;;;;5016711;28;20193;-31
2022/06/03 07:28:30;;;;;;;6.38;5.78;;;21.20;99.90;;;;;;5033584;28;20224;-31
2022/06/03 07:31:35;;;;;;;12.73;5.82;;;21.40;99.90;;;;;;5016857;28;20272;-31
2022/06/03 07:34:29;;;;;;;7.80;5.25;;;21.50;99.90;;;;;;5032818;28;20201;-31
2022/06/03 07:37:04;;;;;;;5.63;5.13;;;21.70;99.90;;;;;;5021628;28;20194;-31
2022/06/03 07:39:34;;;;;;;5.97;5.03;;;21.90;99.90;;;;;;5033261;28;20235;-31
2022/06/03 07:42:28;;;;;;;6.25;4.85;;;22.00;99.90;;;;;;5032978;28;20239;-31
2022/06/03 07:45:09;;;;;;;5.18;4.38;;;22.20;99.90;;;;;;5033117;28;20247;-32
2022/06/03 07:47:35;;;;;;;7.40;4.18;;;22.30;99.90;;;;;;5016680;28;20208;-31
2022/06/03 07:50:05;;;;;;;4.72;4.22;;;22.40;99.90;;;;;;5033163;28;20234;-31
2022/06/03 07:52:43;;;;;;;4.72;4.13;;;22.60;99.90;;;;;;5033032;28;20606;-31
2022/06/03 07:55:20;;;;;;;4.82;4.18;;;22.80;99.90;;;;;;5016307;28;20213;-31
2022/06/03 07:57:52;;;;;;;5.32;4.13;;;23.00;99.90;;;;;;5032974;28;20209;-31
2022/06/03 08:00:19;;;;;;;5.30;3.78;;;23.00;99.90;;;;;;5016380;28;20178;-31
2022/06/03 08:02:46;;;;;;;4.32;4.00;;;23.10;99.90;;;;;;5016120;28;20682;-32
2022/06/03 08:05:20;;;;;;;4.35;3.95;;;23.40;99.90;;;;;;5014768;28;20171;-31
2022/06/03 08:11:10;;;;;;;4.45;3.75;;;23.70;99.90;;;;;;5030140;28;20186;-32
2022/06/03 08:13:39;;;;;;;4.28;3.88;;;23.90;99.90;;;;;;5030551;28;20194;-31
2022/06/03 08:16:10;;;;;;;7.60;4.78;;;24.00;99.90;;;;;;5032360;28;20300;-32
2022/06/03 08:18:40;;;;;;;5.50;4.22;;;24.00;99.90;;;;;;5050452;28;20198;-31
2022/06/03 08:21:21;;;;;;;7.20;5.22;;;24.00;99.90;;;;;;5032659;28;20189;-31
2022/06/03 08:23:48;;;;;;;6.28;4.30;;;23.60;99.90;;;;;;5032439;28;20182;-32
2022/06/03 08:26:16;;;;;;;4.63;4.10;;;23.50;99.90;;;;;;5032756;28;20288;-32
2022/06/03 08:29:04;;;;;;;4.60;4.18;;;23.50;99.90;;;;;;5032571;28;20197;-31
2022/06/03 08:31:31;;;;;;;5.70;4.72;;;23.50;99.90;;;;;;5033688;28;20166;-31
2022/06/03 08:34:00;;;;;;;5.47;4.47;;;23.50;99.90;;;;;;5033728;28;20245;-32
2022/06/03 08:36:29;;;;;;;5.82;4.88;;;23.60;99.90;;;;;;5033456;28;20174;-32
2022/06/03 08:39:26;;;;;;;5.03;4.60;;;23.60;99.90;;;;;;5049653;28;20202;-32
2022/06/03 08:42:19;;;;;;;5.43;3.80;;;23.90;99.90;;;;;;5025937;28;20200;-31
2022/06/03 08:45:04;;;;;;;4.07;3.70;;;24.20;99.90;;;;;;5049178;28;20257;-32
2022/06/03 08:47:59;;;;;;;5.50;3.88;;;24.60;99.90;;;;;;5045829;28;20225;-32
2022/06/03 08:50:32;;;;;;;6.00;4.00;;;24.90;99.90;;;;;;5013036;28;20186;-32
2022/06/03 08:53:33;;;;;;;4.63;4.03;;;25.10;99.90;;;;;;5031747;28;20316;-32
2022/06/03 08:56:07;;;;;;;4.68;3.80;;;25.30;99.90;;;;;;5031303;28;20158;-32
2022/06/03 08:58:54;;;;;;;4.53;3.83;;;25.30;99.90;;;;;;5005779;28;20264;-32
2022/06/03 09:01:47;;;;;;;6.15;3.80;;;25.60;99.90;;;;;;5046753;28;20281;-32
2022/06/03 09:04:33;;;;;;;3.90;3.50;;;25.70;99.90;;;;;;5045716;28;20265;-32
2022/06/03 09:07:27;;;;;;;3.78;3.47;;;25.70;99.90;;;;;;5030800;28;20232;-32
2022/06/03 09:10:02;;;;;;;4.07;3.60;;;25.70;99.90;;;;;;5065274;28;20186;-32
2022/06/03 09:12:28;;;;;;;4.00;3.60;;;26.00;99.90;;;;;;5015634;28;20178;-32
2022/06/03 09:14:56;;;;;;;5.15;3.90;;;26.00;99.90;;;;;;5014816;28;20228;-32
2022/06/03 09:17:44;;;;;;;5.85;3.53;;;26.20;99.90;;;;;;5068926;28;20186;-32
2022/06/03 09:20:31;;;;;;;3.67;3.47;;;26.10;99.90;;;;;;5053589;28;20229;-32
2022/06/03 09:23:04;;;;;;;4.22;3.33;;;26.30;99.90;;;;;;5034682;28;20269;-32
2022/06/03 09:25:33;;;;;;;4.10;3.47;;;26.60;99.90;;;;;;5015841;28;20181;-32
2022/06/03 09:28:05;;;;;;;4.82;3.78;;;26.80;99.90;;;;;;5018616;28;20275;-32
2022/06/03 09:30:38;;;;;;;3.30;3.10;;;26.80;99.90;;;;;;5057562;28;20170;-32
2022/06/03 09:33:07;;;;;;;3.15;2.78;;;27.00;99.90;;;;;;5017521;28;20178;-32
2022/06/03 09:35:37;;;;;;;5.22;3.60;;;27.20;99.90;;;;;;5034569;28;20209;-32
2022/06/03 09:38:06;;;;;;;4.22;3.75;;;27.20;99.90;;;;;;5017983;28;20298;-32
2022/06/03 09:40:40;;;;;;;4.10;3.65;;;27.20;99.90;;;;;;5034905;28;20174;-32
2022/06/03 09:43:18;;;;;;;3.22;3.00;;;27.20;99.90;;;;;;5032413;28;20274;-32
2022/06/03 09:45:50;;;;;;;3.40;3.10;;;27.30;99.90;;;;;;5034664;28;20184;-32
2022/06/03 09:48:20;;;;;;;6.03;3.15;;;27.40;99.90;;;;;;5035034;28;20202;-32
2022/06/03 09:50:54;;;;;;;3.50;3.20;;;27.50;99.90;;;;;;5032206;28;20202;-32
2022/06/03 09:53:25;;;;;;;3.90;3.60;;;27.30;99.90;;;;;;5018128;28;20240;-32
2022/06/03 09:55:57;;;;;;;3.60;3.30;;;27.40;99.90;;;;;;5034336;28;20217;-32
2022/06/03 09:58:28;;;;;;;3.80;3.50;;;27.40;99.90;;;;;;5018158;28;20206;-32
2022/06/03 10:00:56;;;;;;;3.22;3.00;;;27.30;99.90;;;;;;5052590;28;20175;-32
2022/06/03 10:03:24;;;;;;;4.05;2.55;;;27.50;99.90;;;;;;5052361;28;20256;-32
2022/06/03 10:05:54;;;;;;;4.22;3.20;;;27.80;99.90;;;;;;5034124;28;20201;-33
2022/06/03 10:08:24;;;;;;;3.65;3.00;;;27.80;99.90;;;;;;5034232;28;20206;-32
2022/06/03 10:13:42;;;;;;;3.20;3.00;;;28.00;99.90;;;;;;5033076;28;20253;-33
2022/06/03 10:16:12;;;;;;;3.30;3.00;;;28.20;99.90;;;;;;5032222;28;20178;-33
2022/06/03 10:18:50;;;;;;;3.55;3.10;;;28.40;99.90;;;;;;5017284;28;20201;-32
2022/06/03 10:21:16;;;;;;;3.63;3.17;;;28.60;99.90;;;;;;5032695;28;20223;-32
2022/06/03 10:23:53;;;;;;;3.90;2.90;;;28.50;99.90;;;;;;5051630;28;20185;-33
2022/06/03 10:26:35;;;;;;;3.25;2.95;;;28.70;99.90;;;;;;5013792;28;20198;-33
2022/06/03 10:29:27;;;;;;;3.17;2.97;;;28.90;99.90;;;;;;5014508;28;20194;-32
2022/06/03 10:32:03;;;;;;;3.42;3.13;;;28.90;99.90;;;;;;5032684;28;20178;-33
2022/06/03 10:34:40;;;;;;;3.40;3.10;;;29.00;99.90;;;;;;5033736;28;20205;-33
2022/06/03 10:37:11;;;;;;;3.15;2.83;;;29.10;99.90;;;;;;5033821;28;20264;-32
2022/06/03 10:39:40;;;;;;;3.00;2.70;;;29.30;99.90;;;;;;5051907;28;20208;-33
2022/06/03 10:42:16;;;;;;;3.35;3.13;;;29.50;99.90;;;;;;5033668;28;20178;-32
2022/06/03 10:44:49;;;;;;;2.78;2.47;;;29.50;99.90;;;;;;5017323;28;20221;-33
2022/06/03 10:47:18;;;;;;;3.70;2.97;;;29.60;99.90;;;;;;5052074;28;20205;-33
2022/06/03 10:50:00;;;;;;;6.35;2.95;;;29.60;99.40;;;;;;5017504;28;20185;-32
2022/06/03 11:01:23;;;;;;;3.55;3.17;;;28.70;99.90;;;;;;5032120;28;20171;-32
2022/06/03 11:03:52;;;;;;;3.97;2.97;;;28.40;99.90;;;;;;5022066;28;20166;-33
2022/06/03 11:06:22;;;;;;;4.60;3.03;;;28.40;99.90;;;;;;5016653;28;20173;-33
2022/06/03 11:08:59;;;;;;;3.53;3.22;;;28.20;99.90;;;;;;5058085;28;20284;-32
2022/06/03 11:12:00;;;;;;;3.55;2.92;;;28.10;99.90;;;;;;5016824;28;20196;-32
2022/06/03 11:14:41;;;;;;;4.20;3.15;;;28.00;99.90;;;;;;5030338;28;20288;-33
2022/06/03 11:17:20;;;;;;;5.60;3.45;;;27.90;99.90;;;;;;5066838;28;20174;-32
2022/06/03 11:19:52;;;;;;;3.33;3.10;;;27.90;99.90;;;;;;5066627;28;20217;-33
2022/06/03 11:22:36;;;;;;;3.40;3.10;;;27.90;99.90;;;;;;5033681;28;20190;-32
2022/06/03 11:25:11;;;;;;;3.72;2.75;;;27.90;99.90;;;;;;5032741;28;20194;-32
2022/06/03 11:27:56;;;;;;;3.50;3.20;;;27.90;99.90;;;;;;5051291;28;20197;-32
2022/06/03 11:30:35;;;;;;;3.20;3.00;;;27.90;99.90;;;;;;5033393;28;20178;-33
2022/06/03 11:33:17;;;;;;;3.90;3.40;;;27.90;99.90;;;;;;5016853;28;20181;-33
2022/06/03 11:35:59;;;;;;;3.55;3.28;;;28.10;99.90;;;;;;5035415;28;20197;-32
2022/06/03 11:38:39;;;;;;;2.90;2.70;;;28.10;99.90;;;;;;5075796;22;20317;-35
2022/06/03 11:41:14;;;;;;;4.13;3.28;;;28.10;99.90;;;;;;5018527;28;20175;-34
2022/06/03 11:43:50;;;;;;;5.20;3.10;;;28.00;99.90;;;;;;5004105;28;20536;-34
2022/06/03 11:46:25;;;;;;;3.63;3.17;;;27.90;99.90;;;;;;5004405;28;20182;-34
2022/06/03 11:48:53;;;;;;;3.72;2.70;;;27.80;99.90;;;;;;5021925;28;20324;-34
2022/06/03 11:51:19;;;;;;;3.00;2.80;;;27.70;99.90;;;;;;4999099;28;20233;-34
2022/06/03 11:53:48;;;;;;;3.67;2.55;;;27.80;99.90;;;;;;4993668;28;20178;-34
2022/06/03 11:56:20;;;;;;;3.90;3.10;;;27.90;99.90;;;;;;4994060;28;20186;-34
2022/06/03 11:58:57;;;;;;;3.67;2.97;;;27.80;99.90;;;;;;4978008;28;20199;-34
2022/06/03 12:01:52;;;;;;;3.20;2.90;;;27.70;99.90;;;;;;4977725;28;20189;-35
2022/06/03 12:04:27;;;;;;;3.20;3.00;;;27.70;99.90;;;;;;4993641;28;20191;-35
2022/06/03 12:07:17;;;;;;;3.75;3.00;;;27.60;99.90;;;;;;4993528;28;20229;-35
2022/06/03 12:09:59;;;;;;;2.97;2.70;;;27.50;99.90;;;;;;4977454;28;20226;-34
2022/06/03 12:16:04;;;;;;;3.53;2.83;;;27.60;99.90;;;;;;4951129;29;20220;-34
2022/06/03 12:18:39;;;;;;;4.25;3.10;;;27.60;99.90;;;;;;4935238;29;20239;-35
2022/06/03 12:21:14;;;;;;;4.28;2.80;;;27.70;99.90;;;;;;4973908;28;20202;-35
2022/06/03 12:23:42;;;;;;;3.30;3.00;;;27.60;99.90;;;;;;4976985;28;20251;-35
2022/06/03 12:26:28;;;;;;;3.83;3.53;;;27.40;99.90;;;;;;4977431;28;20186;-35
2022/06/03 12:29:00;;;;;;;3.25;2.95;;;27.30;99.90;;;;;;4993505;28;20202;-34
2022/06/03 12:31:47;;;;;;;3.20;2.95;;;27.20;99.90;;;;;;4977276;28;20183;-34
2022/06/03 12:34:35;;;;;;;3.55;2.85;;;27.10;99.90;;;;;;4992849;28;20210;-34
2022/06/03 12:37:23;;;;;;;4.13;3.47;;;27.00;99.90;;;;;;5010919;28;20191;-34
2022/06/03 12:39:58;;;;;;;3.42;3.08;;;26.90;99.90;;;;;;4992916;28;20211;-34
2022/06/03 12:42:27;;;;;;;5.28;3.28;;;26.80;99.90;;;;;;4976305;28;20632;-34
2022/06/03 12:44:57;;;;;;;3.50;3.17;;;26.80;99.90;;;;;;4992223;28;20256;-34
2022/06/03 12:47:33;;;;;;;4.00;3.50;;;26.80;99.90;;;;;;4976649;28;20180;-35
2022/06/03 12:50:06;;;;;;;4.25;2.92;;;26.80;99.90;;;;;;4992874;28;20278;-34
2022/06/03 12:52:35;;;;;;;3.58;3.00;;;26.90;99.90;;;;;;5010608;28;20179;-35
2022/06/03 12:55:10;;;;;;;3.33;3.13;;;26.80;99.90;;;;;;4995754;28;20218;-35
2022/06/03 12:57:47;;;;;;;3.53;3.20;;;26.80;99.90;;;;;;4987402;28;20205;-35
2022/06/03 13:00:34;;;;;;;4.13;3.00;;;26.80;99.90;;;;;;5010990;28;20209;-35
2022/06/03 13:03:04;;;;;;;3.20;2.60;;;26.90;99.90;;;;;;4994937;28;20171;-34
2022/06/03 13:05:48;;;;;;;3.38;3.08;;;26.90;99.90;;;;;;4995958;28;20175;-35
2022/06/03 13:08:29;;;;;;;3.45;3.15;;;26.80;99.90;;;;;;4995068;28;20197;-36
2022/06/03 13:11:30;;;;;;;3.05;2.75;;;26.80;99.90;;;;;;5008770;28;20227;-34
2022/06/03 13:13:57;;;;;;;5.13;3.33;;;26.70;99.90;;;;;;4995796;28;20198;-34
2022/06/03 13:16:31;;;;;;;4.40;3.33;;;26.50;99.90;;;;;;4995758;28;20184;-34
2022/06/03 13:19:21;;;;;;;4.28;3.83;;;26.20;99.90;;;;;;5013618;28;20247;-34
2022/06/03 13:22:00;;;;;;;5.38;3.90;;;26.20;99.90;;;;;;4995881;28;20183;-35
2022/06/03 13:24:30;;;;;;;4.32;3.90;;;26.10;99.90;;;;;;4978302;28;20278;-36
2022/06/03 13:27:10;;;;;;;4.30;4.00;;;26.00;99.90;;;;;;4996406;28;20179;-34
2022/06/03 13:30:10;;;;;;;7.78;4.13;;;26.00;99.90;;;;;;4995324;28;20211;-36
2022/06/03 13:32:36;;;;;;;6.90;4.20;;;26.00;99.90;;;;;;4994807;28;20231;-33
2022/06/03 13:35:18;;;;;;;5.22;4.07;;;25.90;99.90;;;;;;5013545;28;20226;-35
2022/06/03 13:37:50;;;;;;;8.52;4.10;;;25.80;99.90;;;;;;5028839;28;20175;-33
2022/06/03 13:40:36;;;;;;;4.13;3.70;;;25.70;99.90;;;;;;5013786;28;20179;-34
2022/06/03 13:43:04;;;;;;;4.25;3.60;;;25.60;99.90;;;;;;5013215;28;20179;-35
2022/06/03 13:46:00;;;;;;;6.18;3.97;;;25.60;99.90;;;;;;4989373;28;20292;-35
2022/06/03 13:48:49;;;;;;;4.68;3.45;;;25.50;99.90;;;;;;4989429;28;20202;-35
2022/06/03 13:51:21;;;;;;;4.53;3.80;;;25.50;99.90;;;;;;4974651;28;20207;-34
2022/06/03 13:53:59;;;;;;;4.13;3.83;;;25.40;99.90;;;;;;4992358;28;20176;-35
2022/06/03 13:56:28;;;;;;;6.25;3.80;;;25.40;99.90;;;;;;4995427;28;20273;-34
2022/06/03 13:58:56;;;;;;;4.50;3.90;;;25.40;99.90;;;;;;4995001;28;20199;-35
2022/06/03 14:01:42;;;;;;;5.03;4.18;;;25.30;99.90;;;;;;4994291;28;20184;-35
2022/06/03 14:04:15;;;;;;;4.35;3.88;;;25.20;99.90;;;;;;5012585;28;20186;-34
2022/06/03 14:06:46;;;;;;;4.40;3.53;;;25.10;99.90;;;;;;4995167;28;20640;-35
2022/06/03 14:09:26;;;;;;;3.88;3.47;;;25.00;99.90;;;;;;4979437;28;20255;-35
2022/06/03 14:12:07;;;;;;;5.22;3.10;;;25.00;99.90;;;;;;4978944;28;20197;-35
2022/06/03 14:14:58;;;;;;;6.93;3.63;;;25.00;99.90;;;;;;4978254;28;20199;-34
2022/06/03 14:17:47;;;;;;;4.82;3.17;;;25.00;99.90;;;;;;4976438;28;20184;-35
2022/06/03 14:20:20;;;;;;;5.32;3.45;;;25.10;99.90;;;;;;5018467;28;20206;-35
2022/06/03 14:22:50;;;;;;;4.05;3.50;;;25.30;99.90;;;;;;4997355;28;20172;-36
2022/06/03 14:25:32;;;;;;;3.92;2.75;;;25.50;99.90;;;;;;4985738;28;20278;-34
2022/06/03 14:28:24;;;;;;;3.40;2.97;;;25.60;99.90;;;;;;4984153;28;20214;-35
2022/06/03 14:31:11;;;;;;;4.78;3.20;;;25.60;99.90;;;;;;4982638;28;20203;-35